Time;durP1;ratioP1;P1;durP2;ratioP2;P2;SDS_P1;SDS_P2;PMS_P1;PMS_P2;Temp;Humidity;BMP_temperature;BMP_pressure;BME280_temperature;BME280_humidity;BME280_pressure;Samples;Min_cycle;Max_cycle;Signal;HPM_P1;HPM_P2
2023/01/03 00:01:44;;;;;;;;;;;7.20;99.90;;;;;;5052644;28;20040;-51
2023/01/03 00:04:10;;;;;;;;;;;7.20;99.90;;;;;;5052562;28;19919;-51
2023/01/03 00:06:37;;;;;;;;;;;7.20;99.90;;;;;;5052296;28;19909;-49
2023/01/03 00:09:04;;;;;;;;;;;7.10;99.90;;;;;;5052345;28;19912;-49
2023/01/03 00:14:16;;;;;;;;;;;7.00;99.90;;;;;;5052662;28;19915;-49
2023/01/03 00:16:42;;;;;;;;;;;6.90;99.90;;;;;;5052173;28;20361;-50
2023/01/03 00:19:08;;;;;;;;;;;6.90;99.90;;;;;;5052046;28;20095;-52
2023/01/03 00:21:34;;;;;;;;;;;6.90;99.90;;;;;;5052300;28;20354;-49
2023/01/03 00:24:00;;;;;;;;;;;6.90;99.90;;;;;;5052262;28;19913;-51
2023/01/03 00:26:26;;;;;;;;;;;6.80;99.90;;;;;;5052015;28;19954;-53
2023/01/03 00:28:52;;;;;;;;;;;6.80;99.90;;;;;;5051850;28;19908;-51
2023/01/03 00:31:18;;;;;;;;;;;6.80;99.90;;;;;;5051950;28;19980;-51
2023/01/03 00:33:43;;;;;;;;;;;6.70;99.90;;;;;;5052069;28;19908;-50
2023/01/03 00:36:09;;;;;;;;;;;6.80;99.90;;;;;;5051995;28;20414;-51
2023/01/03 00:38:35;;;;;;;;;;;6.70;99.90;;;;;;5051609;28;19954;-53
2023/01/03 00:41:11;;;;;;;;;;;6.70;99.90;;;;;;5051949;28;19940;-54
2023/01/03 00:43:37;;;;;;;;;;;6.80;99.90;;;;;;5051916;28;19999;-52
2023/01/03 00:46:04;;;;;;;;;;;6.70;99.90;;;;;;5051641;28;20428;-52
2023/01/03 00:48:30;;;;;;;;;;;6.70;99.90;;;;;;5051897;28;20195;-53
2023/01/03 00:50:56;;;;;;;;;;;6.70;99.90;;;;;;5051619;28;20008;-51
2023/01/03 00:53:21;;;;;;;;;;;6.70;99.90;;;;;;5051916;28;19995;-51
2023/01/03 00:55:47;;;;;;;;;;;6.70;99.90;;;;;;5051570;28;19912;-50
2023/01/03 00:58:13;;;;;;;;;;;6.70;99.90;;;;;;5051435;28;19908;-53
2023/01/03 01:00:39;;;;;;;;;;;6.80;99.90;;;;;;5051231;28;20388;-49
2023/01/03 01:03:04;;;;;;;;;;;6.70;99.90;;;;;;5051590;28;20337;-53
2023/01/03 01:05:30;;;;;;;;;;;6.70;99.90;;;;;;5050834;28;19909;-49
2023/01/03 01:07:56;;;;;;;;;;;6.70;99.90;;;;;;5051200;28;19908;-48
2023/01/03 01:10:22;;;;;;;;;;;6.70;99.90;;;;;;5051130;28;20007;-49
2023/01/03 01:12:47;;;;;;;;;;;6.70;99.90;;;;;;5051394;28;19916;-48
2023/01/03 01:15:13;;;;;;;;;;;6.70;99.90;;;;;;5051221;28;19909;-49
2023/01/03 01:17:39;;;;;;;;;;;6.70;99.90;;;;;;5051492;28;19909;-50
2023/01/03 01:20:05;;;;;;;;;;;6.80;99.90;;;;;;5051343;28;19908;-49
2023/01/03 01:22:32;;;;;;;;;;;6.80;99.90;;;;;;5051578;28;19954;-50
2023/01/03 01:24:57;;;;;;;;;;;6.80;99.90;;;;;;5051347;28;19963;-48
2023/01/03 01:27:23;;;;;;;;;;;6.90;99.90;;;;;;5051194;28;19944;-52
2023/01/03 01:29:48;;;;;;;;;;;6.90;99.90;;;;;;5050923;28;19923;-52
2023/01/03 01:32:14;;;;;;;;;;;6.90;99.90;;;;;;5051451;28;19913;-48
2023/01/03 01:34:40;;;;;;;;;;;7.00;99.90;;;;;;5051398;28;19909;-48
2023/01/03 01:37:05;;;;;;;;;;;6.90;99.90;;;;;;5051455;28;20258;-48
2023/01/03 01:39:31;;;;;;;;;;;7.00;99.90;;;;;;5051183;28;20004;-49
2023/01/03 01:44:42;;;;;;;;;;;7.00;99.90;;;;;;5051034;28;20405;-49
2023/01/03 01:47:13;;;;;;;;;;;7.00;99.90;;;;;;5051038;28;19908;-48
2023/01/03 01:49:40;;;;;;;;;;;7.00;99.90;;;;;;5050703;28;19916;-51
2023/01/03 01:52:06;;;;;;;;;;;6.90;99.90;;;;;;5050957;28;19909;-50
2023/01/03 01:54:32;;;;;;;;;;;6.90;99.90;;;;;;5050949;28;19916;-48
2023/01/03 01:56:58;;;;;;;;;;;6.90;99.90;;;;;;5050699;28;19912;-50
2023/01/03 01:59:23;;;;;;;;;;;7.00;99.90;;;;;;5049474;28;19931;-48
2023/01/03 02:01:51;;;;;;;;;;;6.90;99.90;;;;;;5050995;28;20339;-52
2023/01/03 02:04:20;;;;;;;;;;;7.00;99.90;;;;;;5050872;28;20281;-51
2023/01/03 02:06:45;;;;;;;;;;;7.00;99.90;;;;;;5050664;28;20380;-52
2023/01/03 02:09:11;;;;;;;;;;;7.00;99.90;;;;;;5050529;28;19913;-49
2023/01/03 02:11:45;;;;;;;;;;;7.00;99.90;;;;;;5050698;28;20369;-47
2023/01/03 02:14:28;;;;;;;;;;;7.10;99.90;;;;;;5050816;28;19909;-48
2023/01/03 02:17:29;;;;;;;;;;;7.10;99.90;;;;;;5051793;28;19916;-49
2023/01/03 02:19:55;;;;;;;;;;;7.10;99.90;;;;;;4973051;28;19952;-49
2023/01/03 02:22:21;;;;;;;;;;;7.20;99.90;;;;;;5037456;28;19904;-50
2023/01/03 02:25:17;;;;;;;;;;;7.20;99.90;;;;;;5054432;28;19959;-51
2023/01/03 02:28:02;;;;;;;;;;;7.10;99.90;;;;;;5054318;28;19962;-47
2023/01/03 02:30:39;;;;;;;;;;;7.10;99.90;;;;;;5054241;28;20288;-48
2023/01/03 02:33:17;;;;;;;;;;;7.10;99.90;;;;;;5054510;28;19954;-47
2023/01/03 02:35:43;;;;;;;;;;;7.10;99.90;;;;;;5054237;28;20032;-47
2023/01/03 02:38:08;;;;;;;;;;;7.00;99.90;;;;;;5054004;28;19939;-53
2023/01/03 02:40:37;;;;;;;;;;;7.00;99.90;;;;;;5053811;28;19970;-48
2023/01/03 02:43:38;;;;;;;;;;;7.00;99.90;;;;;;5054125;28;19999;-50
2023/01/03 02:46:07;;;;;;;;;;;7.00;99.90;;;;;;4972805;28;19910;-51
2023/01/03 02:48:43;;;;;;;;;;;7.00;99.90;;;;;;5038756;28;19917;-51
2023/01/03 02:51:14;;;;;;;;;;;6.90;99.90;;;;;;5053883;28;20365;-49
2023/01/03 02:53:42;;;;;;;;;;;6.90;99.90;;;;;;5053874;28;19912;-52
2023/01/03 02:56:10;;;;;;;;;;;6.90;99.90;;;;;;5065587;22;19967;-60
2023/01/03 02:58:37;;;;;;;;;;;6.90;99.90;;;;;;5053117;28;19996;-60
2023/01/03 03:01:04;;;;;;;;;;;6.80;99.90;;;;;;5053814;28;19908;-59
2023/01/03 03:03:31;;;;;;;;;;;6.80;99.90;;;;;;5053651;28;20364;-60
2023/01/03 03:06:07;;;;;;;;;;;6.60;99.90;;;;;;5053889;28;19916;-60
2023/01/03 03:08:33;;;;;;;;;;;6.60;99.90;;;;;;5052082;28;20361;-60
2023/01/03 03:13:46;;;;;;;;;;;6.40;99.90;;;;;;5053504;28;19932;-60
2023/01/03 03:16:14;;;;;;;;;;;6.30;99.90;;;;;;5053280;28;20395;-60
2023/01/03 03:18:42;;;;;;;;;;;6.30;99.90;;;;;;5053218;28;19909;-60
2023/01/03 03:26:43;;;;;;;;;;;6.20;99.90;;;;;;5053035;28;19915;-60
2023/01/03 03:29:15;;;;;;;;;;;6.20;99.90;;;;;;5052065;28;20387;-60
2023/01/03 03:31:42;;;;;;;;;;;6.10;99.90;;;;;;5053507;28;20304;-60
2023/01/03 03:34:37;;;;;;;;;;;6.20;99.90;;;;;;5053105;28;20289;-60
2023/01/03 03:37:11;;;;;;;;;;;6.20;99.90;;;;;;5035537;28;19913;-60
2023/01/03 03:45:11;;;;;;;;;;;6.10;99.90;;;;;;5052893;28;19920;-60
2023/01/03 03:47:51;;;;;;;;;;;6.00;99.90;;;;;;5052713;28;20000;-60
2023/01/03 03:50:39;;;;;;;;;;;5.90;99.90;;;;;;5052539;28;19920;-60
2023/01/03 03:53:07;;;;;;;;;;;5.90;99.90;;;;;;5052867;28;20122;-60
2023/01/03 03:55:40;;;;;;;;;;;5.90;99.90;;;;;;5052560;28;19912;-60
2023/01/03 03:58:12;;;;;;;;;;;5.80;99.90;;;;;;5052574;28;19970;-60
2023/01/03 04:00:39;;;;;;;;;;;5.80;99.90;;;;;;5052452;28;20411;-60
2023/01/03 04:03:05;;;;;;;;;;;5.70;99.90;;;;;;5052700;28;19939;-60
2023/01/03 04:05:33;;;;;;;;;;;5.60;99.90;;;;;;5052446;28;19970;-60
2023/01/03 04:07:59;;;;;;;;;;;5.60;99.90;;;;;;5052232;28;19915;-60
2023/01/03 04:10:25;;;;;;;;;;;5.60;99.90;;;;;;5052375;28;20011;-60
2023/01/03 04:12:52;;;;;;;;;;;5.50;99.90;;;;;;5052698;28;19915;-60
2023/01/03 04:15:18;;;;;;;;;;;5.50;99.90;;;;;;5052411;28;19909;-60
2023/01/03 04:17:43;;;;;;;;;;;5.40;99.90;;;;;;5052096;28;19919;-60
2023/01/03 04:20:09;;;;;;;;;;;5.40;99.90;;;;;;5051996;28;19908;-60
2023/01/03 04:22:35;;;;;;;;;;;5.40;99.90;;;;;;5052151;28;19912;-60
2023/01/03 04:25:01;;;;;;;;;;;5.30;99.90;;;;;;5052258;28;19912;-61
2023/01/03 04:27:27;;;;;;;;;;;5.30;99.90;;;;;;5052170;28;19915;-60
2023/01/03 04:29:53;;;;;;;;;;;5.20;99.90;;;;;;5051852;28;19917;-60
2023/01/03 04:32:18;;;;;;;;;;;5.20;99.90;;;;;;5052335;28;19919;-60
2023/01/03 04:34:44;;;;;;;;;;;5.20;99.90;;;;;;5051937;28;19909;-61
2023/01/03 04:37:10;;;;;;;;;;;5.10;99.90;;;;;;5052181;28;19930;-61
2023/01/03 04:39:35;;;;;;;;;;;5.00;99.90;;;;;;5051723;28;19975;-61
2023/01/03 04:44:00;;;;;;;;;;;5.00;99.90;;;;;;5051993;28;19932;-61
2023/01/03 04:44:47;;;;;;;;;;;4.90;99.90;;;;;;5051774;28;20287;-61
2023/01/03 04:47:12;;;;;;;;;;;4.90;99.90;;;;;;5051617;28;19912;-61
2023/01/03 04:49:38;;;;;;;;;;;4.80;99.90;;;;;;5051358;28;19912;-60
2023/01/03 04:52:03;;;;;;;;;;;4.80;99.90;;;;;;5051599;28;19916;-60
2023/01/03 04:54:29;;;;;;;;;;;4.70;99.90;;;;;;5051625;28;20043;-61
2023/01/03 04:56:54;;;;;;;;;;;4.70;99.90;;;;;;5051275;28;19913;-60
2023/01/03 04:59:20;;;;;;;;;;;4.70;99.90;;;;;;5051577;28;20416;-61
2023/01/03 05:01:50;;;;;;;;;;;4.60;99.90;;;;;;5051588;28;19909;-61
2023/01/03 05:04:16;;;;;;;;;;;4.60;99.90;;;;;;5051376;28;19909;-60
2023/01/03 05:06:42;;;;;;;;;;;4.50;99.90;;;;;;5049892;28;20008;-61
2023/01/03 05:09:07;;;;;;;;;;;4.40;99.90;;;;;;5051117;28;19970;-60
2023/01/03 05:11:33;;;;;;;;;;;4.40;99.90;;;;;;5051460;28;19913;-62
2023/01/03 05:13:58;;;;;;;;;;;4.40;99.90;;;;;;5051418;28;19959;-62
2023/01/03 05:16:24;;;;;;;;;;;4.40;99.90;;;;;;5051118;28;19909;-61
2023/01/03 05:18:53;;;;;;;;;;;4.30;99.90;;;;;;5050964;28;20393;-61
2023/01/03 05:26:49;;;;;;;;;;;4.20;99.90;;;;;;5049666;28;20292;-61
2023/01/03 05:29:16;;;;;;;;;;;4.30;99.90;;;;;;5050837;28;20399;-61
2023/01/03 05:31:41;;;;;;;;;;;4.20;99.90;;;;;;5049805;28;19962;-61
2023/01/03 05:34:07;;;;;;;;;;;4.20;99.90;;;;;;5051195;28;19908;-62
2023/01/03 05:36:33;;;;;;;;;;;4.30;99.90;;;;;;5050785;28;19999;-62
2023/01/03 05:38:58;;;;;;;;;;;4.30;99.90;;;;;;5050755;28;19908;-61
2023/01/03 05:44:08;;;;;;;;;;;4.30;99.90;;;;;;5050937;28;19955;-61
2023/01/03 05:46:33;;;;;;;;;;;4.30;99.90;;;;;;5050733;28;19908;-61
2023/01/03 05:48:59;;;;;;;;;;;4.30;99.90;;;;;;5050853;28;20391;-61
2023/01/03 05:51:25;;;;;;;;;;;4.40;99.90;;;;;;5051401;28;20407;-62
2023/01/03 05:53:50;;;;;;;;;;;4.40;99.90;;;;;;5055033;28;19915;-62
2023/01/03 05:56:16;;;;;;;;;;;4.30;99.90;;;;;;5054781;28;19912;-61
2023/01/03 05:58:42;;;;;;;;;;;4.30;99.90;;;;;;5054645;28;19915;-61
2023/01/03 06:01:08;;;;;;;;;;;4.30;99.90;;;;;;5054918;28;20288;-62
2023/01/03 06:03:34;;;;;;;;;;;4.30;99.90;;;;;;5054912;28;19920;-62
2023/01/03 06:06:03;;;;;;;;;;;4.40;99.90;;;;;;5054903;28;19909;-62
2023/01/03 06:08:29;;;;;;;;;;;4.30;99.90;;;;;;5054447;28;19921;-61
2023/01/03 06:10:54;;;;;;;;;;;4.30;99.90;;;;;;5054585;28;19913;-62
2023/01/03 06:13:22;;;;;;;;;;;4.30;99.90;;;;;;5054702;28;20250;-62
2023/01/03 06:17:53;;;;;;;;;;;4.30;99.90;;;;;;5054636;28;20499;-61
2023/01/03 06:18:34;;;;;;;;;;;4.30;99.90;;;;;;5054272;28;19934;-62
2023/01/03 06:21:01;;;;;;;;;;;4.30;99.90;;;;;;5054564;28;20387;-62
2023/01/03 06:23:27;;;;;;;;;;;4.30;99.90;;;;;;5054407;28;19909;-61
2023/01/03 06:25:53;;;;;;;;;;;4.30;99.90;;;;;;5054392;28;19916;-62
2023/01/03 06:28:18;;;;;;;;;;;4.30;99.90;;;;;;5052857;28;19914;-62
2023/01/03 06:30:44;;;;;;;;;;;4.20;99.90;;;;;;5054108;28;19912;-62
2023/01/03 06:33:10;;;;;;;;;;;4.30;99.90;;;;;;5054362;28;19999;-62
2023/01/03 06:35:39;;;;;;;;;;;4.30;99.90;;;;;;5054641;28;19915;-62
2023/01/03 06:38:05;;;;;;;;;;;4.30;99.90;;;;;;5054429;28;19954;-62
2023/01/03 06:40:30;;;;;;;;;;;4.30;99.90;;;;;;5054016;28;19912;-62
2023/01/03 06:42:56;;;;;;;;;;;4.40;99.90;;;;;;5054165;28;19978;-62
2023/01/03 06:53:37;;;;;;;;;;;4.60;99.90;;;;;;5054056;28;19908;-62
2023/01/03 06:56:03;;;;;;;;;;;4.70;99.90;;;;;;5053726;28;19923;-62
2023/01/03 06:58:29;;;;;;;;;;;4.80;99.90;;;;;;5053585;28;19934;-62
2023/01/03 07:00:56;;;;;;;;;;;4.90;99.90;;;;;;5053644;28;19908;-62
2023/01/03 07:03:22;;;;;;;;;;;4.90;99.90;;;;;;5052299;28;19955;-62
2023/01/03 07:05:47;;;;;;;;;;;4.90;99.90;;;;;;5053580;28;19905;-60
2023/01/03 07:08:13;;;;;;;;;;;4.90;99.90;;;;;;5053468;28;19913;-62
2023/01/03 07:10:39;;;;;;;;;;;5.00;99.90;;;;;;5053347;28;19916;-61
2023/01/03 07:15:49;;;;;;;;;;;5.00;99.90;;;;;;5053413;28;19998;-61
2023/01/03 07:18:15;;;;;;;;;;;5.00;99.90;;;;;;5053405;28;19912;-60
2023/01/03 07:20:42;;;;;;;;;;;5.10;99.90;;;;;;5053083;28;19971;-60
2023/01/03 07:23:07;;;;;;;;;;;5.10;99.90;;;;;;5053336;28;19913;-60
2023/01/03 07:25:33;;;;;;;;;;;5.10;99.90;;;;;;5053373;28;19966;-61
2023/01/03 07:27:59;;;;;;;;;;;5.10;99.90;;;;;;5052979;28;19909;-61
2023/01/03 07:30:25;;;;;;;;;;;5.10;99.90;;;;;;5052918;28;20019;-61
2023/01/03 07:32:50;;;;;;;;;;;5.10;99.90;;;;;;5053424;28;19909;-61
2023/01/03 07:35:18;;;;;;;;;;;5.10;99.90;;;;;;5053009;28;19954;-61
2023/01/03 07:37:43;;;;;;;;;;;5.10;99.90;;;;;;5052760;28;19967;-61
2023/01/03 07:40:09;;;;;;;;;;;5.20;99.90;;;;;;5051505;28;19909;-61
2023/01/03 07:45:19;;;;;;;;;;;5.10;99.90;;;;;;5053017;28;19909;-60
2023/01/03 07:47:45;;;;;;;;;;;5.30;99.90;;;;;;5052776;28;19977;-61
2023/01/03 07:50:11;;;;;;;;;;;5.40;99.90;;;;;;5052659;28;19920;-61
2023/01/03 07:52:36;;;;;;;;;;;5.50;99.90;;;;;;5052641;28;19908;-62
2023/01/03 07:55:02;;;;;;;;;;;5.50;99.90;;;;;;5052312;28;19947;-62
2023/01/03 07:57:28;;;;;;;;;;;5.60;99.90;;;;;;5052423;28;20289;-61
2023/01/03 07:59:53;;;;;;;;;;;5.50;99.90;;;;;;5052380;28;19920;-61
2023/01/03 08:02:19;;;;;;;;;;;5.50;99.90;;;;;;5052680;28;19908;-60
2023/01/03 08:04:45;;;;;;;;;;;5.50;99.90;;;;;;5052567;28;19927;-60
2023/01/03 08:07:10;;;;;;;;;;;5.50;99.90;;;;;;5052395;28;19999;-60
2023/01/03 08:15:04;;;;;;;;;;;5.60;99.90;;;;;;5051705;28;19929;-61
2023/01/03 08:17:30;;;;;;;;;;;5.60;99.90;;;;;;5052090;28;19909;-61
2023/01/03 08:19:56;;;;;;;;;;;5.70;99.90;;;;;;5051889;28;19909;-61
2023/01/03 08:22:21;;;;;;;;;;;5.80;99.90;;;;;;5052132;28;20316;-61
2023/01/03 08:24:47;;;;;;;;;;;5.90;99.90;;;;;;5052211;28;20002;-61
2023/01/03 08:27:12;;;;;;;;;;;6.00;99.90;;;;;;5051948;28;19908;-61
2023/01/03 08:29:38;;;;;;;;;;;6.10;99.90;;;;;;5051739;28;20007;-61
2023/01/03 08:32:04;;;;;;;;;;;6.20;99.90;;;;;;5051931;28;19909;-61
2023/01/03 08:34:35;;;;;;;;;;;6.20;99.90;;;;;;5052385;28;20387;-61
2023/01/03 08:37:02;;;;;;;;;;;6.30;99.90;;;;;;5051598;28;19909;-61
2023/01/03 08:39:30;;;;;;;;;;;6.40;99.90;;;;;;5051866;28;19958;-61
2023/01/03 08:41:59;;;;;;;;;;;6.40;99.90;;;;;;5051817;28;19990;-61
2023/01/03 08:44:24;;;;;;;;;;;6.50;99.90;;;;;;5051761;28;20004;-61
2023/01/03 08:46:51;;;;;;;;;;;6.60;99.90;;;;;;5051432;28;20356;-61
2023/01/03 08:49:17;;;;;;;;;;;6.60;99.90;;;;;;5051278;28;20009;-61
2023/01/03 08:51:43;;;;;;;;;;;6.70;99.90;;;;;;5051545;28;20380;-61
2023/01/03 08:54:08;;;;;;;;;;;6.80;99.90;;;;;;5051625;28;19913;-61
2023/01/03 08:56:34;;;;;;;;;;;6.90;99.90;;;;;;5063323;22;20457;-50
2023/01/03 08:59:00;;;;;;;;;;;7.00;99.90;;;;;;5051178;28;19915;-50
2023/01/03 09:01:26;;;;;;;;;;;7.10;99.90;;;;;;5051508;28;19914;-48
2023/01/03 09:03:51;;;;;;;;;;;7.20;99.90;;;;;;5051462;28;19962;-49
2023/01/03 09:06:17;;;;;;;;;;;7.30;99.90;;;;;;5051107;28;20361;-53
2023/01/03 09:08:43;;;;;;;;;;;7.30;99.90;;;;;;5051146;28;19926;-48
2023/01/03 09:11:08;;;;;;;;;;;7.30;99.90;;;;;;5033399;28;19912;-51
2023/01/03 09:13:35;;;;;;;;;;;7.30;99.90;;;;;;5051301;28;19909;-48
2023/01/03 09:16:04;;;;;;;;;;;7.40;99.90;;;;;;5051649;28;19909;-49
2023/01/03 09:18:30;;;;;;;;;;;7.40;99.90;;;;;;5051173;28;19915;-50
2023/01/03 09:20:55;;;;;;;;;;;7.40;99.90;;;;;;5051121;28;19908;-50
2023/01/03 09:23:21;;;;;;;;;;;7.50;99.90;;;;;;5051149;28;19915;-48
2023/01/03 09:25:47;;;;;;;;;;;7.50;99.90;;;;;;5050578;28;19920;-50
2023/01/03 09:28:12;;;;;;;;;;;7.50;99.90;;;;;;5050675;28;19916;-50
2023/01/03 09:30:38;;;;;;;;;;;7.50;99.90;;;;;;5050677;28;20009;-51
2023/01/03 09:33:04;;;;;;;;;;;7.60;99.90;;;;;;5050949;28;20011;-49
2023/01/03 09:35:30;;;;;;;;;;;7.70;99.90;;;;;;5051198;28;20376;-49
2023/01/03 09:37:55;;;;;;;;;;;7.80;99.90;;;;;;5050854;28;19916;-48
2023/01/03 09:40:21;;;;;;;;;;;8.00;99.90;;;;;;5050676;28;19909;-50
2023/01/03 09:45:33;;;;;;;;;;;8.10;99.90;;;;;;5050722;28;20058;-51
2023/01/03 09:48:00;;;;;;;;;;;8.20;99.90;;;;;;5050618;28;19916;-53
2023/01/03 09:50:27;;;;;;;;;;;8.20;99.90;;;;;;5050562;28;19913;-50
2023/01/03 10:04:11;;;;;;;;;;;8.30;99.90;;;;;;5050730;28;19915;-48
2023/01/03 10:06:37;;;;;;;;;;;8.40;99.90;;;;;;5050445;28;20379;-50
2023/01/03 10:09:18;;;;;;;;;;;8.40;99.90;;;;;;5050490;28;19909;-51
2023/01/03 10:12:04;;;;;;;;;;;8.50;99.90;;;;;;5050651;28;20288;-48
2023/01/03 10:14:51;;;;;;;;;;;8.40;99.90;;;;;;5050722;28;19909;-50
2023/01/03 10:17:33;;;;;;;;;;;8.40;99.90;;;;;;5049830;28;19909;-50
2023/01/03 10:20:05;;;;;;;;;;;8.40;99.90;;;;;;5050507;28;20387;-53
2023/01/03 10:22:32;;;;;;;;;;;8.60;99.90;;;;;;5049318;28;19909;-51
2023/01/03 10:25:01;;;;;;;;;;;9.00;99.90;;;;;;5049276;28;19913;-51
2023/01/03 10:27:28;;;;;;;;;;;9.50;99.90;;;;;;5050679;28;20225;-52
2023/01/03 10:29:55;;;;;;;;;;;9.90;99.90;;;;;;5050270;28;19963;-50
2023/01/03 10:32:21;;;;;;;;;;;10.10;99.90;;;;;;5049133;28;19908;-51
2023/01/03 10:35:05;;;;;;;;;;;10.10;99.90;;;;;;5050414;28;20328;-53
2023/01/03 10:37:30;;;;;;;;;;;9.90;99.90;;;;;;5051212;28;19916;-50
2023/01/03 10:40:03;;;;;;;;;;;9.80;99.90;;;;;;5053772;28;20349;-47
2023/01/03 10:42:31;;;;;;;;;;;9.70;99.90;;;;;;5054050;28;19908;-48
2023/01/03 10:45:01;;;;;;;;;;;9.60;99.90;;;;;;5054113;28;19908;-50
2023/01/03 10:47:26;;;;;;;;;;;9.40;99.90;;;;;;5053864;28;19908;-49
2023/01/03 10:49:59;;;;;;;;;;;9.30;99.90;;;;;;5053584;28;19912;-50
2023/01/03 10:52:29;;;;;;;;;;;9.20;99.90;;;;;;5053808;28;19909;-49
2023/01/03 10:54:57;;;;;;;;;;;9.20;99.90;;;;;;5053989;28;19909;-49
2023/01/03 10:57:35;;;;;;;;;;;9.10;99.90;;;;;;5053478;28;20358;-49
2023/01/03 11:00:00;;;;;;;;;;;9.10;99.90;;;;;;5053612;28;19916;-50
2023/01/03 11:02:26;;;;;;;;;;;9.00;99.90;;;;;;5053715;28;19909;-50
2023/01/03 11:05:11;;;;;;;;;;;8.90;99.90;;;;;;5053618;28;19909;-52
2023/01/03 11:07:43;;;;;;;;;;;8.90;99.90;;;;;;5053703;28;20296;-48
2023/01/03 11:10:14;;;;;;;;;;;8.80;99.90;;;;;;5052035;28;20285;-50
2023/01/03 11:12:41;;;;;;;;;;;8.80;99.90;;;;;;5053586;28;20376;-49
2023/01/03 11:15:18;;;;;;;;;;;8.70;99.90;;;;;;5053322;28;19908;-49
2023/01/03 11:17:53;;;;;;;;;;;8.70;99.90;;;;;;5053155;28;19937;-50
2023/01/03 11:20:19;;;;;;;;;;;8.70;99.90;;;;;;5053190;28;19931;-48
2023/01/03 11:22:45;;;;;;;;;;;8.70;99.90;;;;;;5053394;28;19905;-48
2023/01/03 11:25:33;;;;;;;;;;;8.70;99.90;;;;;;5053459;28;19935;-50
2023/01/03 11:28:04;;;;;;;;;;;8.70;99.90;;;;;;5053224;28;19908;-51
2023/01/03 11:30:47;;;;;;;;;;;8.60;99.90;;;;;;5053118;28;19920;-52
2023/01/03 11:33:31;;;;;;;;;;;8.60;99.90;;;;;;5053648;28;19928;-52
2023/01/03 11:35:59;;;;;;;;;;;8.70;99.90;;;;;;5052934;28;20328;-51
2023/01/03 11:38:39;;;;;;;;;;;8.70;99.90;;;;;;5052883;28;19969;-48
2023/01/03 11:41:23;;;;;;;;;;;8.70;99.90;;;;;;5052973;28;19909;-48
2023/01/03 11:44:09;;;;;;;;;;;8.80;99.90;;;;;;5053068;28;20190;-49
2023/01/03 11:46:53;;;;;;;;;;;8.80;99.90;;;;;;5052161;28;19913;-47
2023/01/03 11:49:28;;;;;;;;;;;8.80;99.90;;;;;;5051871;28;19908;-47
2023/01/03 11:52:09;;;;;;;;;;;8.90;99.90;;;;;;5052911;28;20278;-48
2023/01/03 11:54:53;;;;;;;;;;;8.90;99.90;;;;;;5051544;28;20429;-50
2023/01/03 11:57:37;;;;;;;;;;;8.90;99.90;;;;;;5052353;28;19913;-48
2023/01/03 12:00:20;;;;;;;;;;;9.00;99.90;;;;;;5052442;28;19908;-48
2023/01/03 12:02:45;;;;;;;;;;;9.00;99.90;;;;;;5052660;28;19908;-46
2023/01/03 12:05:23;;;;;;;;;;;9.20;99.90;;;;;;5052419;28;19909;-49
2023/01/03 12:08:08;;;;;;;;;;;9.40;99.90;;;;;;5052374;28;19908;-47
2023/01/03 12:10:52;;;;;;;;;;;9.60;99.90;;;;;;5052319;28;19919;-49
2023/01/03 12:13:30;;;;;;;;;;;9.70;99.90;;;;;;5052375;28;19913;-51
2023/01/03 12:15:55;;;;;;;;;;;9.80;99.90;;;;;;5052281;28;20000;-50
2023/01/03 12:18:21;;;;;;;;;;;9.90;99.90;;;;;;5051186;28;20413;-50
2023/01/03 12:20:50;;;;;;;;;;;10.00;99.90;;;;;;5052315;28;19920;-52
2023/01/03 12:23:22;;;;;;;;;;;10.10;99.90;;;;;;5052229;28;19935;-51
2023/01/03 12:25:51;;;;;;;;;;;10.10;99.90;;;;;;5052071;28;20365;-50
2023/01/03 12:28:21;;;;;;;;;;;10.10;99.90;;;;;;5051893;28;20379;-50
2023/01/03 12:30:51;;;;;;;;;;;10.10;99.90;;;;;;5051694;28;19920;-51
2023/01/03 12:33:30;;;;;;;;;;;10.20;99.90;;;;;;5052032;28;19916;-52
2023/01/03 12:36:00;;;;;;;;;;;10.20;99.90;;;;;;5051987;28;19909;-51
2023/01/03 12:38:30;;;;;;;;;;;10.20;99.90;;;;;;5051651;28;19909;-49
2023/01/03 12:41:03;;;;;;;;;;;10.20;99.90;;;;;;5052085;28;20009;-52
2023/01/03 12:43:34;;;;;;;;;;;10.20;99.90;;;;;;5051901;28;20241;-52
2023/01/03 12:46:15;;;;;;;;;;;10.30;99.90;;;;;;5051731;28;19984;-51
2023/01/03 12:48:40;;;;;;;;;;;10.30;99.90;;;;;;5051421;28;19931;-47
2023/01/03 12:51:06;;;;;;;;;;;10.50;99.90;;;;;;5051587;28;19913;-50
2023/01/03 12:53:50;;;;;;;;;;;10.60;99.90;;;;;;5050430;28;20364;-50
2023/01/03 12:56:25;;;;;;;;;;;10.90;99.90;;;;;;5051350;28;19920;-52
2023/01/03 12:58:50;;;;;;;;;;;11.30;99.90;;;;;;5051320;28;19916;-52
2023/01/03 13:01:22;;;;;;;;;;;12.20;99.90;;;;;;5051377;28;19908;-52
2023/01/03 13:03:51;;;;;;;;;;;13.30;99.90;;;;;;5051678;28;19912;-52
2023/01/03 13:06:29;;;;;;;;;;;14.20;99.90;;;;;;5051533;28;19951;-51
2023/01/03 13:09:00;;;;;;;;;;;14.30;99.90;;;;;;5051273;28;19932;-50
2023/01/03 13:11:39;;;;;;;;;;;14.50;99.90;;;;;;5051331;28;19955;-52
2023/01/03 13:14:25;;;;;;;;;;;14.40;99.90;;;;;;5051195;28;19916;-54
2023/01/03 13:16:55;;;;;;;;;;;13.90;99.90;;;;;;5050354;28;20480;-51
2023/01/03 13:19:21;;;;;;;;;;;13.80;99.90;;;;;;5051408;28;19908;-51
2023/01/03 13:21:52;;;;;;;;;;;14.10;99.90;;;;;;5051328;28;19999;-51
2023/01/03 13:24:36;;;;;;;;;;;13.70;99.90;;;;;;5051155;28;19913;-49
2023/01/03 13:27:17;;;;;;;;;;;13.30;99.90;;;;;;5050923;28;19916;-49
2023/01/03 13:29:43;;;;;;;;;;;12.40;99.90;;;;;;5050916;28;19919;-50
2023/01/03 13:32:21;;;;;;;;;;;11.80;99.90;;;;;;5051224;28;19905;-48
2023/01/03 13:34:55;;;;;;;;;;;11.50;99.90;;;;;;5051460;28;19909;-48
2023/01/03 13:37:22;;;;;;;;;;;11.20;99.90;;;;;;5050864;28;20035;-51
2023/01/03 13:39:50;;;;;;;;;;;10.90;99.90;;;;;;5049460;28;19954;-51
2023/01/03 13:42:27;;;;;;;;;;;10.70;99.90;;;;;;5050841;28;20316;-48
2023/01/03 13:45:11;;;;;;;;;;;10.60;99.90;;;;;;5051042;28;19945;-52
2023/01/03 13:47:39;;;;;;;;;;;10.50;99.90;;;;;;5050992;28;19970;-52
2023/01/03 13:50:16;;;;;;;;;;;10.60;99.90;;;;;;5050638;28;19913;-52
2023/01/03 13:53:02;;;;;;;;;;;10.60;99.90;;;;;;5050912;28;20369;-48
2023/01/03 13:55:46;;;;;;;;;;;10.50;99.90;;;;;;5050660;28;20436;-48
2023/01/03 13:58:25;;;;;;;;;;;10.50;99.90;;;;;;5050477;28;19909;-47
2023/01/03 14:00:53;;;;;;;;;;;10.40;99.90;;;;;;5050623;28;19996;-50
2023/01/03 14:03:27;;;;;;;;;;;10.40;99.90;;;;;;5050737;28;20420;-49
2023/01/03 14:06:05;;;;;;;;;;;10.30;99.90;;;;;;5051185;28;19916;-52
2023/01/03 14:08:31;;;;;;;;;;;10.20;99.90;;;;;;5050580;28;19908;-50
2023/01/03 14:10:59;;;;;;;;;;;10.30;99.90;;;;;;5050748;28;19924;-52
2023/01/03 14:13:25;;;;;;;;;;;10.30;99.90;;;;;;5052818;28;19908;-52
2023/01/03 14:16:03;;;;;;;;;;;10.30;99.90;;;;;;5054706;28;19909;-51
2023/01/03 14:18:29;;;;;;;;;;;10.30;99.90;;;;;;5053084;28;19915;-54
2023/01/03 14:20:56;;;;;;;;;;;10.20;99.90;;;;;;5054427;28;19908;-50
2023/01/03 14:23:23;;;;;;;;;;;10.20;99.90;;;;;;5054589;28;19909;-47
2023/01/03 14:25:49;;;;;;;;;;;10.20;99.90;;;;;;5054575;28;19917;-50
2023/01/03 14:28:25;;;;;;;;;;;10.10;99.90;;;;;;5054327;28;19959;-50
2023/01/03 14:30:54;;;;;;;;;;;10.10;99.90;;;;;;5054135;28;19912;-52
2023/01/03 14:33:23;;;;;;;;;;;10.10;99.90;;;;;;5054566;28;19909;-52
2023/01/03 14:35:59;;;;;;;;;;;10.10;99.90;;;;;;5054334;28;19908;-52
2023/01/03 14:38:27;;;;;;;;;;;9.90;99.90;;;;;;5054127;28;19963;-48
2023/01/03 14:40:54;;;;;;;;;;;9.90;99.90;;;;;;5054096;28;19978;-50
2023/01/03 14:43:20;;;;;;;;;;;9.80;99.90;;;;;;5054186;28;19919;-50
2023/01/03 14:45:53;;;;;;;;;;;9.80;99.90;;;;;;5054191;28;19909;-51
2023/01/03 14:48:20;;;;;;;;;;;9.80;99.90;;;;;;5053939;28;19916;-51
2023/01/03 14:50:45;;;;;;;;;;;9.80;99.90;;;;;;5053781;28;19909;-51
2023/01/03 14:53:11;;;;;;;;;;;9.80;99.90;;;;;;5054000;28;19916;-51
2023/01/03 14:55:37;;;;;;;;;;;9.80;99.90;;;;;;5067965;22;19916;-55
2023/01/03 14:58:19;;;;;;;;;;;9.80;99.90;;;;;;5047384;28;19917;-53
2023/01/03 15:00:46;;;;;;;;;;;9.80;99.90;;;;;;5032174;28;19909;-53
2023/01/03 15:03:11;;;;;;;;;;;9.70;99.90;;;;;;5032558;28;20344;-55
2023/01/03 15:05:39;;;;;;;;;;;9.70;99.90;;;;;;5033943;28;19970;-55
2023/01/03 15:08:11;;;;;;;;;;;9.70;99.90;;;;;;5032298;28;19909;-54
2023/01/03 15:10:42;;;;;;;;;;;9.70;99.90;;;;;;5033529;28;19917;-54
2023/01/03 15:13:14;;;;;;;;;;;9.60;99.90;;;;;;5032556;28;19909;-53
2023/01/03 15:15:40;;;;;;;;;;;9.60;99.90;;;;;;5048955;28;20000;-55
2023/01/03 15:18:06;;;;;;;;;;;9.50;99.90;;;;;;5032168;28;19956;-55
2023/01/03 15:20:39;;;;;;;;;;;9.50;99.90;;;;;;5032142;28;20400;-54
2023/01/03 15:23:05;;;;;;;;;;;9.40;99.90;;;;;;5033434;28;19913;-53
2023/01/03 15:25:37;;;;;;;;;;;9.30;99.90;;;;;;5032642;28;19913;-54
2023/01/03 15:28:21;;;;;;;;;;;9.20;99.90;;;;;;5032186;28;19917;-52
2023/01/03 15:30:48;;;;;;;;;;;9.20;99.90;;;;;;5031947;28;19913;-53
2023/01/03 15:33:34;;;;;;;;;;;9.20;99.90;;;;;;5033549;28;20370;-57
2023/01/03 15:36:04;;;;;;;;;;;9.10;99.90;;;;;;5033574;28;19909;-54
2023/01/03 15:38:31;;;;;;;;;;;9.00;99.90;;;;;;5031990;28;19916;-54
2023/01/03 15:40:57;;;;;;;;;;;8.90;99.90;;;;;;5032444;28;19916;-52
2023/01/03 15:43:27;;;;;;;;;;;8.90;99.90;;;;;;5033432;28;19916;-53